createdAt,value
2018-06-23T00:00:58.410Z,1020.87
2018-06-23T00:01:58.432Z,1020.89
2018-06-23T00:02:58.486Z,1020.89
2018-06-23T00:03:58.451Z,1020.90
2018-06-23T00:04:58.399Z,1020.92
2018-06-23T00:05:58.455Z,1020.90
2018-06-23T00:06:58.459Z,1020.87
2018-06-23T00:07:59.116Z,1020.84
2018-06-23T00:08:58.427Z,1020.85
2018-06-23T00:09:58.469Z,1020.85
2018-06-23T00:10:58.474Z,1020.81
2018-06-23T00:11:58.469Z,1020.82
2018-06-23T00:12:58.480Z,1020.76
2018-06-23T00:13:58.458Z,1020.83
2018-06-23T00:14:58.453Z,1020.82
2018-06-23T00:15:58.465Z,1020.84
2018-06-23T00:16:58.468Z,1020.83
2018-06-23T00:17:58.477Z,1020.84
2018-06-23T00:18:58.428Z,1020.83
2018-06-23T00:19:58.451Z,1020.84
2018-06-23T00:20:58.443Z,1020.86
2018-06-23T00:21:58.468Z,1020.90
2018-06-23T00:22:58.468Z,1020.83
2018-06-23T00:23:58.462Z,1020.83
2018-06-23T00:24:58.468Z,1020.86
2018-06-23T00:25:58.449Z,1020.78
2018-06-23T00:26:58.491Z,1020.83
2018-06-23T00:27:58.477Z,1020.83
2018-06-23T00:28:58.509Z,1020.83
2018-06-23T00:29:58.525Z,1020.80
2018-06-23T00:30:58.477Z,1020.83
2018-06-23T00:31:58.472Z,1020.80
2018-06-23T00:32:58.482Z,1020.79
2018-06-23T00:33:58.540Z,1020.87
2018-06-23T00:34:58.457Z,1020.83
2018-06-23T00:35:58.456Z,1020.85
2018-06-23T00:36:58.485Z,1020.85
2018-06-23T00:37:58.485Z,1020.83
2018-06-23T00:38:58.460Z,1020.84
2018-06-23T00:39:58.469Z,1020.83
2018-06-23T00:40:58.453Z,1020.79
2018-06-23T00:41:58.465Z,1020.79
2018-06-23T00:42:58.449Z,1020.79
2018-06-23T00:43:58.479Z,1020.77
2018-06-23T00:44:58.445Z,1020.79
2018-06-23T00:45:58.540Z,1020.81
2018-06-23T00:46:58.533Z,1020.81
2018-06-23T00:47:58.572Z,1020.77
2018-06-23T00:48:58.502Z,1020.81
2018-06-23T00:49:58.524Z,1020.83
2018-06-23T00:50:58.476Z,1020.78
2018-06-23T00:51:58.481Z,1020.79
2018-06-23T00:52:58.469Z,1020.76
2018-06-23T00:53:58.470Z,1020.79
2018-06-23T00:54:58.502Z,1020.81
2018-06-23T00:55:58.496Z,1020.78
2018-06-23T00:56:58.475Z,1020.78
2018-06-23T00:57:58.503Z,1020.79
2018-06-23T00:58:58.492Z,1020.75
2018-06-23T00:59:58.512Z,1020.70
2018-06-23T01:00:58.523Z,1020.69
2018-06-23T01:01:58.507Z,1020.73
2018-06-23T01:02:58.465Z,1020.75
2018-06-23T01:03:58.507Z,1020.75
2018-06-23T01:04:58.513Z,1020.74
2018-06-23T01:05:58.497Z,1020.74
2018-06-23T01:06:58.492Z,1020.74
2018-06-23T01:07:58.513Z,1020.76
2018-06-23T01:08:58.482Z,1020.71
2018-06-23T01:09:58.471Z,1020.75
2018-06-23T01:10:58.478Z,1020.75
2018-06-23T01:11:59.129Z,1020.75
2018-06-23T01:12:58.533Z,1020.75
2018-06-23T01:13:58.521Z,1020.73
2018-06-23T01:14:58.497Z,1020.71
2018-06-23T01:15:58.493Z,1020.71
2018-06-23T01:16:58.523Z,1020.71
2018-06-23T01:17:59.131Z,1020.71
2018-06-23T01:18:58.485Z,1020.67
2018-06-23T01:19:58.549Z,1020.69
2018-06-23T01:20:58.491Z,1020.73
2018-06-23T01:21:58.551Z,1020.71
2018-06-23T01:22:58.531Z,1020.69
2018-06-23T01:23:58.524Z,1020.70
2018-06-23T01:24:58.630Z,1020.69
2018-06-23T01:25:58.508Z,1020.69
2018-06-23T01:26:58.562Z,1020.68
2018-06-23T01:27:58.499Z,1020.72
2018-06-23T01:28:58.550Z,1020.72
2018-06-23T01:29:58.535Z,1020.74
2018-06-23T01:30:58.551Z,1020.70
2018-06-23T01:31:58.510Z,1020.72
2018-06-23T01:32:58.541Z,1020.73
2018-06-23T01:33:58.506Z,1020.73
2018-06-23T01:34:58.521Z,1020.71
2018-06-23T01:35:58.528Z,1020.72
2018-06-23T01:36:58.507Z,1020.70
2018-06-23T01:37:58.533Z,1020.66
2018-06-23T01:38:58.502Z,1020.65
2018-06-23T01:39:58.508Z,1020.64
2018-06-23T01:40:58.547Z,1020.62
2018-06-23T01:41:58.532Z,1020.62
2018-06-23T01:42:58.545Z,1020.64
2018-06-23T01:43:58.545Z,1020.62
2018-06-23T01:44:58.613Z,1020.60
2018-06-23T01:45:58.521Z,1020.62
2018-06-23T01:46:58.556Z,1020.60
2018-06-23T01:47:58.540Z,1020.60
2018-06-23T01:48:58.675Z,1020.58
2018-06-23T01:49:58.601Z,1020.54
2018-06-23T01:50:58.597Z,1020.53
2018-06-23T01:51:58.573Z,1020.49
2018-06-23T01:52:58.526Z,1020.46
2018-06-23T01:53:58.560Z,1020.47
2018-06-23T01:54:58.541Z,1020.45
2018-06-23T01:55:58.545Z,1020.50
2018-06-23T01:56:58.580Z,1020.49
2018-06-23T01:57:58.554Z,1020.46
2018-06-23T01:58:58.593Z,1020.46
2018-06-23T01:59:58.537Z,1020.47
2018-06-23T02:00:58.580Z,1020.46
2018-06-23T02:01:58.575Z,1020.53
2018-06-23T02:02:58.598Z,1020.53
2018-06-23T02:03:58.589Z,1020.50
2018-06-23T02:04:58.560Z,1020.44
2018-06-23T02:05:58.576Z,1020.45
2018-06-23T02:06:58.563Z,1020.47
2018-06-23T02:07:58.623Z,1020.45
2018-06-23T02:08:58.637Z,1020.45
2018-06-23T02:10:00.123Z,1020.45
2018-06-23T02:10:58.719Z,1020.43
2018-06-23T02:11:58.674Z,1020.40
2018-06-23T02:12:58.757Z,1020.46
2018-06-23T02:13:58.697Z,1020.39
2018-06-23T02:14:58.766Z,1020.38
2018-06-23T02:15:59.581Z,1020.36
2018-06-23T02:16:58.559Z,1020.37
2018-06-23T02:17:59.689Z,1020.41
2018-06-23T02:18:58.610Z,1020.43
2018-06-23T02:19:58.925Z,1020.44
2018-06-23T02:20:58.734Z,1020.42
2018-06-23T02:21:59.453Z,1020.44
2018-06-23T02:22:58.628Z,1020.44
2018-06-23T02:23:58.623Z,1020.41
2018-06-23T02:24:58.890Z,1020.42
2018-06-23T02:25:58.751Z,1020.44
2018-06-23T02:26:58.636Z,1020.44
2018-06-23T02:27:58.584Z,1020.40
2018-06-23T02:28:58.645Z,1020.42
2018-06-23T02:29:58.574Z,1020.38
2018-06-23T02:30:58.643Z,1020.36
2018-06-23T02:31:58.607Z,1020.32
2018-06-23T02:32:58.614Z,1020.27
2018-06-23T02:33:58.578Z,1020.28
2018-06-23T02:34:58.615Z,1020.29
2018-06-23T02:35:58.612Z,1020.27
2018-06-23T02:36:58.659Z,1020.29
2018-06-23T02:37:58.589Z,1020.26
2018-06-23T02:38:58.676Z,1020.23
2018-06-23T02:39:58.607Z,1020.28
2018-06-23T02:40:58.625Z,1020.26
2018-06-23T02:41:58.590Z,1020.31
2018-06-23T02:42:58.632Z,1020.32
2018-06-23T02:43:58.627Z,1020.36
2018-06-23T02:44:58.598Z,1020.32
2018-06-23T02:45:58.602Z,1020.28
2018-06-23T02:46:58.595Z,1020.34
2018-06-23T02:47:58.607Z,1020.31
2018-06-23T02:48:58.621Z,1020.34
2018-06-23T02:49:58.628Z,1020.35
2018-06-23T02:50:58.627Z,1020.35
2018-06-23T02:51:58.596Z,1020.37
2018-06-23T02:52:59.169Z,1020.37
2018-06-23T02:53:58.603Z,1020.34
2018-06-23T02:54:58.647Z,1020.34
2018-06-23T02:55:58.652Z,1020.35
2018-06-23T02:56:58.674Z,1020.37
2018-06-23T02:57:58.636Z,1020.36
2018-06-23T02:58:58.607Z,1020.40
2018-06-23T02:59:58.613Z,1020.38
2018-06-23T03:00:58.625Z,1020.39
2018-06-23T03:01:58.649Z,1020.30
2018-06-23T03:02:58.609Z,1020.32
2018-06-23T03:03:58.638Z,1020.37
2018-06-23T03:04:58.629Z,1020.40
2018-06-23T03:05:58.657Z,1020.39
2018-06-23T03:06:58.615Z,1020.33
2018-06-23T03:07:58.648Z,1020.36
2018-06-23T03:08:58.628Z,1020.37
2018-06-23T03:09:58.627Z,1020.32
2018-06-23T03:10:58.666Z,1020.36
2018-06-23T03:11:58.648Z,1020.34
2018-06-23T03:12:58.638Z,1020.39
2018-06-23T03:13:58.667Z,1020.38
2018-06-23T03:14:58.667Z,1020.35
2018-06-23T03:15:58.663Z,1020.40
2018-06-23T03:16:58.669Z,1020.35
2018-06-23T03:17:58.656Z,1020.32
2018-06-23T03:18:58.649Z,1020.33
2018-06-23T03:19:58.655Z,1020.36
2018-06-23T03:20:58.666Z,1020.33
2018-06-23T03:21:58.640Z,1020.31
2018-06-23T03:22:58.684Z,1020.32
2018-06-23T03:23:58.646Z,1020.34
2018-06-23T03:24:58.651Z,1020.35
2018-06-23T03:25:58.741Z,1020.34
2018-06-23T03:26:58.655Z,1020.32
2018-06-23T03:27:58.665Z,1020.33
2018-06-23T03:28:58.662Z,1020.35
2018-06-23T03:29:58.704Z,1020.34
2018-06-23T03:30:58.713Z,1020.28
2018-06-23T03:31:58.675Z,1020.32
2018-06-23T03:32:58.669Z,1020.31
2018-06-23T03:33:58.645Z,1020.35
2018-06-23T03:34:58.701Z,1020.36
2018-06-23T03:35:58.705Z,1020.39
2018-06-23T03:36:58.684Z,1020.39
2018-06-23T03:37:58.698Z,1020.38
2018-06-23T03:38:58.659Z,1020.38
2018-06-23T03:39:58.725Z,1020.41
2018-06-23T03:40:58.714Z,1020.39
2018-06-23T03:41:58.665Z,1020.43
2018-06-23T03:42:58.686Z,1020.41
2018-06-23T03:43:58.671Z,1020.38
2018-06-23T03:44:58.713Z,1020.36
2018-06-23T03:45:58.710Z,1020.36
2018-06-23T03:46:58.704Z,1020.38
2018-06-23T03:47:58.662Z,1020.39
2018-06-23T03:48:58.668Z,1020.37
2018-06-23T03:49:58.755Z,1020.37
2018-06-23T03:50:58.710Z,1020.43
2018-06-23T03:51:58.715Z,1020.37
2018-06-23T03:52:58.675Z,1020.42
2018-06-23T03:53:58.678Z,1020.37
2018-06-23T03:54:58.699Z,1020.42
2018-06-23T03:55:58.683Z,1020.43
2018-06-23T03:56:58.676Z,1020.49
2018-06-23T03:57:58.685Z,1020.46
2018-06-23T03:58:58.684Z,1020.47
2018-06-23T03:59:58.686Z,1020.44
2018-06-23T04:00:58.725Z,1020.47
2018-06-23T04:01:58.687Z,1020.47
2018-06-23T04:02:58.706Z,1020.43
2018-06-23T04:03:58.710Z,1020.48
2018-06-23T04:04:58.697Z,1020.45
2018-06-23T04:05:58.704Z,1020.42
2018-06-23T04:06:58.689Z,1020.43
2018-06-23T04:07:58.718Z,1020.40
2018-06-23T04:08:58.745Z,1020.48
2018-06-23T04:09:58.747Z,1020.41
2018-06-23T04:10:58.711Z,1020.45
2018-06-23T04:11:58.687Z,1020.39
2018-06-23T04:12:58.728Z,1020.39
2018-06-23T04:13:58.697Z,1020.36
2018-06-23T04:14:58.725Z,1020.36
2018-06-23T04:15:58.705Z,1020.36
2018-06-23T04:16:58.728Z,1020.37
2018-06-23T04:17:58.713Z,1020.33
2018-06-23T04:18:58.704Z,1020.28
2018-06-23T04:19:58.731Z,1020.32
2018-06-23T04:20:58.724Z,1020.30
2018-06-23T04:21:58.741Z,1020.28
2018-06-23T04:22:58.756Z,1020.30
2018-06-23T04:23:58.739Z,1020.32
2018-06-23T04:24:58.735Z,1020.32
2018-06-23T04:25:58.770Z,1020.29
2018-06-23T04:26:58.762Z,1020.30
2018-06-23T04:27:58.746Z,1020.31
2018-06-23T04:28:58.725Z,1020.28
2018-06-23T04:29:58.725Z,1020.31
2018-06-23T04:30:58.731Z,1020.29
2018-06-23T04:31:58.719Z,1020.25
2018-06-23T04:32:58.721Z,1020.23
2018-06-23T04:33:58.794Z,1020.25
2018-06-23T04:34:58.725Z,1020.24
2018-06-23T04:35:58.748Z,1020.25
2018-06-23T04:36:58.738Z,1020.26
2018-06-23T04:37:58.745Z,1020.29
2018-06-23T04:38:58.726Z,1020.27
2018-06-23T04:39:58.739Z,1020.31
2018-06-23T04:40:58.763Z,1020.32
2018-06-23T04:41:58.769Z,1020.35
2018-06-23T04:42:58.831Z,1020.34
2018-06-23T04:43:58.752Z,1020.29
2018-06-23T04:44:58.778Z,1020.33
2018-06-23T04:45:58.733Z,1020.33
2018-06-23T04:46:58.744Z,1020.34
2018-06-23T04:47:58.750Z,1020.35
2018-06-23T04:48:58.735Z,1020.33
2018-06-23T04:49:58.741Z,1020.37
2018-06-23T04:50:58.767Z,1020.35
2018-06-23T04:51:58.776Z,1020.35
2018-06-23T04:52:58.735Z,1020.37
2018-06-23T04:53:58.742Z,1020.28
2018-06-23T04:54:58.747Z,1020.29
2018-06-23T04:55:58.796Z,1020.31
2018-06-23T04:56:58.789Z,1020.31
2018-06-23T04:57:58.850Z,1020.28
2018-06-23T04:58:58.781Z,1020.33
2018-06-23T04:59:58.777Z,1020.32
2018-06-23T05:00:58.800Z,1020.26
2018-06-23T05:01:58.762Z,1020.27
2018-06-23T05:02:58.765Z,1020.32
2018-06-23T05:03:58.797Z,1020.26
2018-06-23T05:04:58.761Z,1020.26
2018-06-23T05:05:58.763Z,1020.27
2018-06-23T05:06:58.751Z,1020.27
2018-06-23T05:07:58.780Z,1020.28
2018-06-23T05:08:58.841Z,1020.31
2018-06-23T05:09:58.831Z,1020.27
2018-06-23T05:10:58.889Z,1020.24
2018-06-23T05:11:58.820Z,1020.28
2018-06-23T05:12:58.827Z,1020.29
2018-06-23T05:13:58.812Z,1020.31
2018-06-23T05:14:58.824Z,1020.31
2018-06-23T05:15:58.792Z,1020.30
2018-06-23T05:16:58.804Z,1020.24
2018-06-23T05:17:58.785Z,1020.28
2018-06-23T05:18:58.815Z,1020.27
2018-06-23T05:19:58.834Z,1020.33
2018-06-23T05:20:58.775Z,1020.30
2018-06-23T05:21:58.790Z,1020.31
2018-06-23T05:22:58.778Z,1020.30
2018-06-23T05:23:58.790Z,1020.20
2018-06-23T05:24:58.786Z,1020.26
2018-06-23T05:25:58.811Z,1020.28
2018-06-23T05:26:58.789Z,1020.30
2018-06-23T05:27:58.799Z,1020.27
2018-06-23T05:28:58.803Z,1020.31
2018-06-23T05:29:58.826Z,1020.38
2018-06-23T05:30:58.818Z,1020.38
2018-06-23T05:31:58.826Z,1020.33
2018-06-23T05:32:58.850Z,1020.32
2018-06-23T05:33:58.841Z,1020.32
2018-06-23T05:34:59.333Z,1020.34
2018-06-23T05:35:59.200Z,1020.30
2018-06-23T05:36:58.850Z,1020.36
2018-06-23T05:37:58.807Z,1020.35
2018-06-23T05:38:59.063Z,1020.33
2018-06-23T05:39:58.808Z,1020.36
2018-06-23T05:40:58.849Z,1020.35
2018-06-23T05:41:58.810Z,1020.37
2018-06-23T05:42:58.816Z,1020.42
2018-06-23T05:43:58.802Z,1020.40
2018-06-23T05:44:58.867Z,1020.43
2018-06-23T05:45:58.821Z,1020.44
2018-06-23T05:46:58.855Z,1020.44
2018-06-23T05:47:58.939Z,1020.44
2018-06-23T05:48:58.854Z,1020.45
2018-06-23T05:49:58.813Z,1020.47
2018-06-23T05:50:58.816Z,1020.46
2018-06-23T05:51:58.848Z,1020.53
2018-06-23T05:52:58.880Z,1020.55
2018-06-23T05:53:58.811Z,1020.66
2018-06-23T05:54:58.814Z,1020.72
2018-06-23T05:55:58.873Z,1020.66
2018-06-23T05:56:58.822Z,1020.66
2018-06-23T05:57:58.885Z,1020.64
2018-06-23T05:58:58.826Z,1020.60
2018-06-23T05:59:58.834Z,1020.54
2018-06-23T06:00:58.833Z,1020.63
2018-06-23T06:01:58.861Z,1020.68
2018-06-23T06:02:58.866Z,1020.72
2018-06-23T06:03:58.882Z,1020.77
2018-06-23T06:04:58.886Z,1020.77
2018-06-23T06:05:58.886Z,1020.79
2018-06-23T06:06:58.869Z,1020.68
2018-06-23T06:07:58.848Z,1020.56
2018-06-23T06:08:58.971Z,1020.59
2018-06-23T06:09:58.908Z,1020.78
2018-06-23T06:10:58.837Z,1020.75
2018-06-23T06:11:58.883Z,1020.88
2018-06-23T06:12:58.908Z,1020.91
2018-06-23T06:13:58.881Z,1020.72
2018-06-23T06:14:58.923Z,1020.69
2018-06-23T06:15:58.876Z,1020.79
2018-06-23T06:16:58.880Z,1020.80
2018-06-23T06:17:58.898Z,1020.79
2018-06-23T06:18:58.995Z,1020.66
2018-06-23T06:19:58.898Z,1020.69
2018-06-23T06:20:58.920Z,1020.84
2018-06-23T06:21:58.867Z,1020.94
2018-06-23T06:22:58.872Z,1021.24
2018-06-23T06:23:58.880Z,1021.06
2018-06-23T06:24:58.924Z,1021.64
2018-06-23T06:25:58.909Z,1021.90
2018-06-23T06:26:58.910Z,1021.31
2018-06-23T06:27:58.912Z,1021.38
2018-06-23T06:28:58.937Z,1021.34
2018-06-23T06:29:58.925Z,1021.67
2018-06-23T06:30:58.882Z,1021.54
2018-06-23T06:31:58.884Z,1021.55
2018-06-23T06:32:58.899Z,1021.58
2018-06-23T06:33:58.907Z,1021.84
2018-06-23T06:34:59.033Z,1021.49
2018-06-23T06:35:58.900Z,1021.27
2018-06-23T06:36:58.917Z,1021.13
2018-06-23T06:37:58.928Z,1021.47
2018-06-23T06:38:58.941Z,1021.32
2018-06-23T06:39:58.946Z,1021.10
2018-06-23T06:40:58.953Z,1020.90
2018-06-23T06:41:58.943Z,1020.80
2018-06-23T06:42:58.960Z,1020.74
2018-06-23T06:43:58.928Z,1020.74
2018-06-23T06:44:58.940Z,1020.74
2018-06-23T06:45:59.745Z,1021.17
2018-06-23T06:46:58.930Z,1020.75
2018-06-23T06:47:58.957Z,1020.68
2018-06-23T06:48:58.976Z,1020.74
2018-06-23T06:49:58.983Z,1020.67
2018-06-23T06:50:58.931Z,1020.66
2018-06-23T06:51:58.960Z,1020.67
2018-06-23T06:52:58.972Z,1020.85
2018-06-23T06:53:58.995Z,1020.95
2018-06-23T06:54:58.963Z,1020.93
2018-06-23T06:55:58.948Z,1020.77
2018-06-23T06:56:58.984Z,1020.70
2018-06-23T06:57:58.938Z,1020.64
2018-06-23T06:58:58.957Z,1020.64
2018-06-23T06:59:58.995Z,1020.66
2018-06-23T07:00:58.988Z,1020.76
2018-06-23T07:01:58.970Z,1020.73
2018-06-23T07:02:58.988Z,1020.74
2018-06-23T07:03:59.005Z,1020.64
2018-06-23T07:04:58.979Z,1020.60
2018-06-23T07:05:59.047Z,1020.60
2018-06-23T07:06:59.010Z,1020.69
2018-06-23T07:07:59.000Z,1020.67
2018-06-23T07:08:59.095Z,1020.69
2018-06-23T07:09:59.014Z,1020.70
2018-06-23T07:10:59.053Z,1020.73
2018-06-23T07:11:59.024Z,1021.30
2018-06-23T07:12:58.981Z,1026.89
2018-06-23T07:13:59.034Z,1022.29
2018-06-23T07:14:58.986Z,1021.90
2018-06-23T07:15:58.982Z,1021.09
2018-06-23T07:16:59.062Z,1021.23
2018-06-23T07:17:59.188Z,1021.36
2018-06-23T07:18:59.091Z,1020.85
2018-06-23T07:19:59.037Z,1020.87
2018-06-23T07:20:59.047Z,1021.75
2018-06-23T07:21:59.048Z,1021.29
2018-06-23T07:22:59.028Z,1021.02
2018-06-23T07:23:59.122Z,1021.56
2018-06-23T07:24:59.060Z,1022.04
2018-06-23T07:25:59.092Z,1022.21
2018-06-23T07:26:59.029Z,1021.45
2018-06-23T07:27:59.044Z,1021.39
2018-06-23T07:28:59.053Z,1021.80
2018-06-23T07:29:59.065Z,1021.59
2018-06-23T07:30:59.074Z,1022.91
2018-06-23T07:31:59.073Z,1028.34
2018-06-23T07:32:59.084Z,1026.67
2018-06-23T07:33:59.068Z,1035.56
2018-06-23T07:34:59.110Z,1030.88
2018-06-23T07:35:59.072Z,1034.21
2018-06-23T07:36:59.072Z,1028.41
2018-06-23T07:37:59.092Z,1023.13
2018-06-23T07:38:59.062Z,1021.51
2018-06-23T07:39:59.063Z,1021.88
2018-06-23T07:40:59.095Z,1021.61
2018-06-23T07:41:59.096Z,1021.84
2018-06-23T07:42:59.144Z,1022.42
2018-06-23T07:43:59.069Z,1026.04
2018-06-23T07:44:59.088Z,1022.10
2018-06-23T07:45:59.096Z,1027.10
2018-06-23T07:46:59.081Z,1020.94
2018-06-23T07:47:59.103Z,1021.05
2018-06-23T07:48:59.128Z,1021.55
2018-06-23T07:49:59.754Z,1022.77
2018-06-23T07:50:59.324Z,1021.75
2018-06-23T07:51:59.106Z,1021.15
2018-06-23T07:52:59.110Z,1021.16
2018-06-23T07:53:59.124Z,1023.21
2018-06-23T07:54:59.137Z,1029.61
2018-06-23T07:55:59.219Z,1021.85
2018-06-23T07:56:59.121Z,1031.95
2018-06-23T07:57:59.248Z,1036.09
2018-06-23T07:58:59.182Z,1033.18
2018-06-23T07:59:59.123Z,1034.52
2018-06-23T08:00:59.191Z,1022.63
2018-06-23T08:01:59.136Z,1030.05
2018-06-23T08:02:59.220Z,1021.04
2018-06-23T08:03:59.146Z,1020.98
2018-06-23T08:04:59.166Z,1021.07
2018-06-23T08:05:59.193Z,1048.27
2018-06-23T08:06:59.191Z,1037.32
2018-06-23T08:07:59.179Z,1023.06
2018-06-23T08:08:59.211Z,1021.84
2018-06-23T08:09:59.208Z,1027.73
2018-06-23T08:10:59.218Z,1021.99
2018-06-23T08:11:59.179Z,1045.98
2018-06-23T08:12:59.347Z,1046.71
2018-06-23T08:13:59.249Z,1046.24
2018-06-23T08:14:59.211Z,1046.70
2018-06-23T08:15:59.250Z,1046.72
2018-06-23T08:16:59.214Z,1048.70
2018-06-23T08:17:59.246Z,1034.02
2018-06-23T08:18:59.238Z,1029.68
2018-06-23T08:19:59.281Z,1026.16
2018-06-23T08:20:59.286Z,1022.84
2018-06-23T08:21:59.292Z,1021.09
2018-06-23T08:22:59.285Z,1020.93
2018-06-23T08:23:59.285Z,1020.98
2018-06-23T08:24:59.293Z,1020.98
2018-06-23T08:25:59.316Z,1040.79
2018-06-23T08:26:59.311Z,1021.31
2018-06-23T08:27:59.321Z,1020.98
2018-06-23T08:28:59.321Z,1021.36
2018-06-23T08:29:59.292Z,1029.59
2018-06-23T08:30:59.386Z,1036.19
2018-06-23T08:31:59.386Z,1044.52
2018-06-23T08:32:59.308Z,1027.93
2018-06-23T08:33:59.775Z,1033.23
2018-06-23T08:34:59.355Z,1023.97
2018-06-23T08:35:59.364Z,1029.44
2018-06-23T08:36:59.392Z,1034.12
2018-06-23T08:37:59.357Z,1024.29
2018-06-23T08:38:59.382Z,1026.92
2018-06-23T08:39:59.492Z,1022.50
2018-06-23T08:40:59.374Z,1021.14
2018-06-23T08:41:59.416Z,1021.14
2018-06-23T08:42:59.433Z,1023.22
2018-06-23T08:43:59.425Z,1026.17
2018-06-23T08:44:59.428Z,1021.88
2018-06-23T08:45:59.658Z,1021.02
2018-06-23T08:46:59.525Z,1021.18
2018-06-23T08:47:59.490Z,1021.06
2018-06-23T08:48:59.466Z,1020.99
2018-06-23T08:49:59.471Z,1022.90
2018-06-23T08:50:59.484Z,1023.18
2018-06-23T08:51:59.457Z,1024.56
2018-06-23T08:52:59.491Z,1026.26
2018-06-23T08:53:59.494Z,1025.31
2018-06-23T08:54:59.577Z,1024.43
2018-06-23T08:55:59.501Z,1024.38
2018-06-23T08:56:59.488Z,1023.70
2018-06-23T08:57:59.530Z,1023.49
2018-06-23T08:58:59.579Z,1023.94
2018-06-23T08:59:59.519Z,1024.01
2018-06-23T09:00:59.506Z,1022.75
2018-06-23T09:01:59.698Z,1022.87
2018-06-23T09:02:59.601Z,1021.87
2018-06-23T09:03:59.603Z,1022.10
2018-06-23T09:04:59.573Z,1023.55
2018-06-23T09:05:59.596Z,1023.62
2018-06-23T09:06:59.639Z,1022.56
2018-06-23T09:07:59.643Z,1021.88
2018-06-23T09:08:59.622Z,1023.35
2018-06-23T09:09:59.819Z,1023.07
2018-06-23T09:10:59.655Z,1022.55
2018-06-23T09:11:59.681Z,1021.74
2018-06-23T09:12:59.695Z,1022.33
2018-06-23T09:13:59.634Z,1022.30
2018-06-23T09:14:59.665Z,1022.63
2018-06-23T09:15:59.739Z,1023.48
2018-06-23T09:16:59.734Z,1023.05
2018-06-23T09:17:59.743Z,1021.51
2018-06-23T09:18:59.749Z,1020.95
2018-06-23T09:20:00.308Z,1020.93
2018-06-23T09:20:59.731Z,1020.84
2018-06-23T09:21:59.725Z,1020.87
2018-06-23T09:22:59.777Z,1020.79
2018-06-23T09:23:59.812Z,1020.74
2018-06-23T09:24:59.809Z,1020.68
2018-06-23T09:25:59.984Z,1020.77
2018-06-23T09:26:59.824Z,1021.70
2018-06-23T09:27:59.850Z,1022.10
2018-06-23T09:28:59.862Z,1021.77
2018-06-23T09:29:59.843Z,1021.50
2018-06-23T09:30:59.857Z,1021.71
2018-06-23T09:31:59.872Z,1021.44
2018-06-23T09:32:59.864Z,1021.30
2018-06-23T09:33:59.879Z,1021.24
2018-06-23T09:34:59.910Z,1021.21
2018-06-23T09:35:59.881Z,1021.28
2018-06-23T09:36:59.916Z,1021.58
2018-06-23T09:37:59.905Z,1021.46
2018-06-23T09:39:00.005Z,1021.40
2018-06-23T09:39:59.932Z,1021.10
2018-06-23T09:40:59.935Z,1020.85
2018-06-23T09:41:59.919Z,1020.75
2018-06-23T09:42:59.962Z,1020.76
2018-06-23T09:43:59.940Z,1020.77
2018-06-23T09:45:00.826Z,1020.66
2018-06-23T09:46:00.044Z,1020.68
2018-06-23T09:46:59.982Z,1020.64
2018-06-23T09:48:00.000Z,1020.66
2018-06-23T09:49:00.003Z,1020.74
2018-06-23T09:50:00.014Z,1020.82
2018-06-23T09:51:00.014Z,1020.84
2018-06-23T09:52:00.028Z,1020.97
2018-06-23T09:53:00.049Z,1021.07
2018-06-23T09:53:59.989Z,1021.15
2018-06-23T09:55:00.019Z,1021.35
2018-06-23T09:56:00.150Z,1021.29
2018-06-23T09:57:00.052Z,1021.10
2018-06-23T09:57:59.997Z,1021.06
2018-06-23T09:59:00.103Z,1021.20
2018-06-23T10:00:00.012Z,1021.31
2018-06-23T10:01:00.070Z,1021.32
2018-06-23T10:02:00.057Z,1021.52
2018-06-23T10:03:00.054Z,1021.52
2018-06-23T10:04:00.050Z,1021.40
2018-06-23T10:05:00.085Z,1021.45
2018-06-23T10:06:00.097Z,1021.35
2018-06-23T10:07:00.905Z,1021.11
2018-06-23T10:08:00.106Z,1020.94
2018-06-23T10:09:00.094Z,1020.84
2018-06-23T10:10:00.840Z,1020.81
2018-06-23T10:11:00.103Z,1020.82
2018-06-23T10:12:03.929Z,1020.88
2018-06-23T10:13:00.131Z,1020.93
2018-06-23T10:14:00.083Z,1020.78
2018-06-23T10:15:00.098Z,1020.95
2018-06-23T10:16:00.138Z,1021.06
2018-06-23T10:17:01.557Z,1021.46
2018-06-23T10:18:00.121Z,1021.34
2018-06-23T10:19:00.207Z,1021.71
2018-06-23T10:20:00.150Z,1021.61
2018-06-23T10:21:00.138Z,1021.47
2018-06-23T10:22:00.237Z,1021.34
2018-06-23T10:23:00.134Z,1021.14
2018-06-23T10:24:00.141Z,1021.09
2018-06-23T10:25:00.160Z,1020.97
2018-06-23T10:26:00.178Z,1020.97
2018-06-23T10:27:00.152Z,1020.94
2018-06-23T10:28:00.162Z,1020.90
2018-06-23T10:29:00.166Z,1021.11
2018-06-23T10:30:00.193Z,1021.53
2018-06-23T10:31:00.191Z,1021.52
2018-06-23T10:32:00.192Z,1021.55
2018-06-23T10:33:00.217Z,1021.45
2018-06-23T10:34:00.212Z,1021.58
2018-06-23T10:35:00.231Z,1021.53
2018-06-23T10:36:00.232Z,1021.45
2018-06-23T10:37:00.246Z,1021.50
2018-06-23T10:38:00.240Z,1021.62
2018-06-23T10:39:00.242Z,1021.55
2018-06-23T10:40:00.279Z,1021.20
2018-06-23T10:41:00.233Z,1021.29
2018-06-23T10:42:00.352Z,1021.37
2018-06-23T10:43:00.296Z,1021.24
2018-06-23T10:44:00.325Z,1021.13
2018-06-23T10:45:00.264Z,1021.10
2018-06-23T10:46:00.248Z,1021.18
2018-06-23T10:47:00.286Z,1021.10
2018-06-23T10:48:00.397Z,1021.24
2018-06-23T10:49:00.344Z,1021.36
2018-06-23T10:50:00.316Z,1021.33
2018-06-23T10:51:00.307Z,1021.37
2018-06-23T10:52:00.281Z,1021.32
2018-06-23T10:53:00.271Z,1021.34
2018-06-23T10:54:00.308Z,1021.27
2018-06-23T10:55:00.323Z,1021.35
2018-06-23T10:56:00.359Z,1021.04
2018-06-23T10:57:00.329Z,1020.93
2018-06-23T10:58:00.327Z,1020.83
2018-06-23T10:59:00.314Z,1020.84
2018-06-23T11:00:00.351Z,1020.89
2018-06-23T11:01:00.377Z,1020.79
2018-06-23T11:02:00.374Z,1020.75
2018-06-23T11:03:00.377Z,1020.80
2018-06-23T11:04:00.379Z,1021.01
2018-06-23T11:05:00.439Z,1021.05
2018-06-23T11:06:00.388Z,1021.06
2018-06-23T11:07:00.353Z,1021.02
2018-06-23T11:08:00.360Z,1021.09
2018-06-23T11:09:00.406Z,1021.18
2018-06-23T11:10:00.406Z,1021.09
2018-06-23T11:11:00.389Z,1020.96
2018-06-23T11:12:00.381Z,1020.88
2018-06-23T11:13:00.389Z,1021.05
2018-06-23T11:14:00.428Z,1020.86
2018-06-23T11:15:00.411Z,1020.90
2018-06-23T11:16:00.394Z,1020.78
2018-06-23T11:17:00.480Z,1020.80
2018-06-23T11:18:00.432Z,1020.84
2018-06-23T11:19:00.471Z,1020.88
2018-06-23T11:20:00.471Z,1020.89
2018-06-23T11:21:00.525Z,1020.89
2018-06-23T11:22:00.480Z,1020.86
2018-06-23T11:23:00.438Z,1020.89
2018-06-23T11:24:00.479Z,1020.73
2018-06-23T11:25:00.448Z,1020.62
2018-06-23T11:26:00.480Z,1020.74
2018-06-23T11:27:00.476Z,1020.78
2018-06-23T11:28:00.515Z,1020.65
2018-06-23T11:29:00.508Z,1020.55
2018-06-23T11:30:00.525Z,1020.59
2018-06-23T11:31:00.619Z,1020.59
2018-06-23T11:32:00.535Z,1020.59
2018-06-23T11:33:00.488Z,1020.60
2018-06-23T11:34:00.554Z,1020.66
2018-06-23T11:35:00.529Z,1020.74
2018-06-23T11:36:00.581Z,1020.88
2018-06-23T11:37:00.537Z,1020.94
2018-06-23T11:38:00.518Z,1020.97
2018-06-23T11:39:00.536Z,1021.09
2018-06-23T11:40:00.522Z,1021.22
2018-06-23T11:41:00.550Z,1021.31
2018-06-23T11:42:00.543Z,1021.08
2018-06-23T11:43:00.537Z,1020.92
2018-06-23T11:44:00.580Z,1020.92
2018-06-23T11:45:00.576Z,1020.81
2018-06-23T11:46:00.581Z,1020.67
2018-06-23T11:47:00.533Z,1020.70
2018-06-23T11:48:00.628Z,1020.68
2018-06-23T11:49:00.584Z,1020.80
2018-06-23T11:50:00.604Z,1020.91
2018-06-23T11:51:00.554Z,1020.98
2018-06-23T11:52:00.601Z,1021.09
2018-06-23T11:53:00.680Z,1021.18
2018-06-23T11:54:00.563Z,1021.27
2018-06-23T11:55:00.623Z,1021.13
2018-06-23T11:56:00.608Z,1021.01
2018-06-23T11:57:00.649Z,1020.96
2018-06-23T11:58:00.779Z,1021.01
2018-06-23T11:59:00.590Z,1020.93
2018-06-23T12:00:00.646Z,1020.87
2018-06-23T12:01:00.610Z,1020.89
2018-06-23T12:02:00.691Z,1021.12
2018-06-23T12:03:00.643Z,1021.07
2018-06-23T12:04:00.688Z,1020.95
2018-06-23T12:05:00.618Z,1021.02
2018-06-23T12:06:00.691Z,1020.79